Time,TemperatureF,DewpointF,PressureIn,WindDirection,WindDirectionDegrees,WindSpeedMPH,WindSpeedGustMPH,Humidity,HourlyPrecipIn,Conditions,Clouds,dailyrainin,SoftwareType,DateUTC
2013-02-07 00:00:00,31.7,-3.0,29.53,North,0,0.0,0.0,22,0.00,,,0.00,WUHU216HW,2013-02-07 05:00:00,
2013-02-07 00:01:00,31.7,-3.0,29.53,North,0,0.0,0.0,22,0.00,,,0.00,WUHU216HW,2013-02-07 05:01:00,
2013-02-07 00:06:00,31.7,-3.0,29.53,North,0,0.0,0.0,22,0.00,,,0.00,WUHU216HW,2013-02-07 05:06:00,
2013-02-07 00:11:00,31.7,-2.2,29.53,North,0,0.0,0.0,23,0.00,,,0.00,WUHU216HW,2013-02-07 05:11:00,
2013-02-07 00:16:00,31.9,-2.1,29.53,North,0,0.0,0.0,23,0.00,,,0.00,WUHU216HW,2013-02-07 05:16:00,
2013-02-07 00:21:00,32.0,-1.1,29.53,North,0,0.0,0.0,24,0.00,,,0.00,WUHU216HW,2013-02-07 05:21:00,
2013-02-07 00:26:00,32.0,-1.1,29.53,North,0,0.0,0.0,24,0.00,,,0.00,WUHU216HW,2013-02-07 05:26:00,
2013-02-07 00:32:00,32.0,-1.9,29.52,North,0,0.0,0.0,23,0.00,,,0.00,WUHU216HW,2013-02-07 05:32:00,
2013-02-07 00:37:00,32.0,-0.2,29.52,North,0,0.0,0.0,25,0.00,,,0.00,WUHU216HW,2013-02-07 05:37:00,
2013-02-07 00:42:00,32.0,0.7,29.52,North,0,0.0,0.0,26,0.00,,,0.00,WUHU216HW,2013-02-07 05:42:00,
2013-02-07 00:47:00,32.0,1.5,29.53,North,0,0.0,0.0,27,0.00,,,0.00,WUHU216HW,2013-02-07 05:47:00,
2013-02-07 00:52:00,32.0,3.2,29.52,North,0,0.0,0.0,29,0.00,,,0.00,WUHU216HW,2013-02-07 05:52:00,
2013-02-07 00:57:00,32.0,4.8,29.53,North,0,0.0,0.0,31,0.00,,,0.00,WUHU216HW,2013-02-07 05:57:00,
2013-02-07 01:02:00,32.0,3.2,29.53,North,0,0.0,0.0,29,0.00,,,0.00,WUHU216HW,2013-02-07 06:02:00,
2013-02-07 01:07:00,32.0,1.5,29.54,North,0,0.0,0.0,27,0.00,,,0.00,WUHU216HW,2013-02-07 06:07:00,
2013-02-07 01:12:00,32.0,1.5,29.53,North,0,0.0,0.0,27,0.00,,,0.00,WUHU216HW,2013-02-07 06:12:00,
2013-02-07 01:17:00,32.2,1.7,29.53,North,0,0.0,0.0,27,0.00,,,0.00,WUHU216HW,2013-02-07 06:17:00,
2013-02-07 01:22:00,32.4,1.9,29.52,North,0,0.0,0.0,27,0.00,,,0.00,WUHU216HW,2013-02-07 06:22:00,
2013-02-07 01:27:00,32.4,2.7,29.52,North,0,0.0,0.0,28,0.00,,,0.00,WUHU216HW,2013-02-07 06:27:00,
2013-02-07 01:32:00,32.4,3.6,29.52,North,0,0.0,0.0,29,0.00,,,0.00,WUHU216HW,2013-02-07 06:32:00,
2013-02-07 01:37:00,32.6,2.9,29.51,North,0,0.0,0.0,28,0.00,,,0.00,WUHU216HW,2013-02-07 06:37:00,
2013-02-07 01:42:00,32.6,2.9,29.51,North,0,0.0,0.0,28,0.00,,,0.00,WUHU216HW,2013-02-07 06:42:00,
2013-02-07 01:47:00,32.6,3.8,29.51,North,0,0.0,0.0,29,0.00,,,0.00,WUHU216HW,2013-02-07 06:47:00,
2013-02-07 01:52:00,32.6,2.9,29.50,North,0,0.0,0.0,28,0.00,,,0.00,WUHU216HW,2013-02-07 06:52:00,
2013-02-07 01:57:00,32.8,3.1,29.50,North,0,0.0,0.0,28,0.00,,,0.00,WUHU216HW,2013-02-07 06:57:00,
2013-02-07 02:02:00,32.8,4.0,29.50,North,0,0.0,0.0,29,0.00,,,0.00,WUHU216HW,2013-02-07 07:02:00,
2013-02-07 02:07:00,32.8,4.0,29.50,North,0,0.0,0.0,29,0.00,,,0.00,WUHU216HW,2013-02-07 07:07:00,
2013-02-07 02:13:00,32.8,3.1,29.50,North,0,0.0,0.0,28,0.00,,,0.00,WUHU216HW,2013-02-07 07:13:00,
2013-02-07 02:18:00,32.8,4.0,29.50,North,0,0.0,0.0,29,0.00,,,0.00,WUHU216HW,2013-02-07 07:18:00,
2013-02-07 02:23:00,32.8,4.0,29.50,North,0,0.0,0.0,29,0.00,,,0.00,WUHU216HW,2013-02-07 07:23:00,
2013-02-07 02:28:00,32.8,3.1,29.49,North,0,0.0,0.0,28,0.00,,,0.00,WUHU216HW,2013-02-07 07:28:00,
2013-02-07 02:33:00,32.8,4.0,29.49,North,0,0.0,0.0,29,0.00,,,0.00,WUHU216HW,2013-02-07 07:33:00,
2013-02-07 02:38:00,32.8,4.0,29.49,North,0,0.0,0.0,29,0.00,,,0.00,WUHU216HW,2013-02-07 07:38:00,
2013-02-07 02:43:00,32.8,4.8,29.49,North,0,0.0,0.0,30,0.00,,,0.00,WUHU216HW,2013-02-07 07:43:00,
2013-02-07 02:48:00,32.8,4.0,29.48,North,0,0.0,0.0,29,0.00,,,0.00,WUHU216HW,2013-02-07 07:48:00,
2013-02-07 02:53:00,32.8,2.2,29.49,North,0,0.0,0.0,27,0.00,,,0.00,WUHU216HW,2013-02-07 07:53:00,
2013-02-07 02:58:00,32.6,2.9,29.49,North,0,0.0,0.0,28,0.00,,,0.00,WUHU216HW,2013-02-07 07:58:00,
2013-02-07 03:03:00,32.4,2.7,29.49,North,0,0.0,0.0,28,0.00,,,0.00,WUHU216HW,2013-02-07 08:03:00,
2013-02-07 03:08:00,32.2,0.8,29.49,North,0,0.0,0.0,26,0.00,,,0.00,WUHU216HW,2013-02-07 08:08:00,
2013-02-07 03:13:00,32.0,-1.1,29.49,North,0,0.0,0.0,24,0.00,,,0.00,WUHU216HW,2013-02-07 08:13:00,
2013-02-07 03:19:00,31.9,2.3,29.49,North,0,0.0,0.0,28,0.00,,,0.00,WUHU216HW,2013-02-07 08:19:00,
2013-02-07 03:24:00,31.7,2.1,29.49,North,0,0.0,0.0,28,0.00,,,0.00,WUHU216HW,2013-02-07 08:24:00,
2013-02-07 03:29:00,31.5,1.1,29.49,North,0,0.0,0.0,27,0.00,,,0.00,WUHU216HW,2013-02-07 08:29:00,
2013-02-07 03:34:00,31.3,4.2,29.49,North,0,0.0,0.0,31,0.00,,,0.00,WUHU216HW,2013-02-07 08:34:00,
2013-02-07 03:39:00,31.0,-2.9,29.49,North,0,0.0,0.0,23,0.00,,,0.00,WUHU216HW,2013-02-07 08:39:00,
2013-02-07 03:44:00,30.6,2.9,29.49,North,0,0.0,0.0,30,0.00,,,0.00,WUHU216HW,2013-02-07 08:44:00,
2013-02-07 03:49:00,30.4,4.0,29.49,North,0,0.0,0.0,32,0.00,,,0.00,WUHU216HW,2013-02-07 08:49:00,
2013-02-07 03:54:00,29.9,5.3,29.48,North,0,0.0,0.0,35,0.00,,,0.00,WUHU216HW,2013-02-07 08:54:00,
2013-02-07 03:59:00,29.7,5.2,29.48,North,0,0.0,0.0,35,0.00,,,0.00,WUHU216HW,2013-02-07 08:59:00,
2013-02-07 04:04:00,29.3,4.9,29.48,North,0,0.0,0.0,35,0.00,,,0.00,WUHU216HW,2013-02-07 09:04:00,
2013-02-07 04:09:00,29.3,2.3,29.49,North,0,0.0,0.0,31,0.00,,,0.00,WUHU216HW,2013-02-07 09:09:00,
2013-02-07 04:14:00,29.5,-2.4,29.49,North,0,0.0,0.0,25,0.00,,,0.00,WUHU216HW,2013-02-07 09:14:00,
2013-02-07 04:19:00,29.5,-0.7,29.49,North,0,0.0,0.0,27,0.00,,,0.00,WUHU216HW,2013-02-07 09:19:00,
2013-02-07 04:25:00,29.2,0.7,29.48,North,0,0.0,0.0,29,0.00,,,0.00,WUHU216HW,2013-02-07 09:25:00,
2013-02-07 04:30:00,29.2,-0.2,29.48,North,0,0.0,0.0,28,0.00,,,0.00,WUHU216HW,2013-02-07 09:30:00,
2013-02-07 04:35:00,29.2,-7.0,29.48,North,0,0.0,0.0,20,0.00,,,0.00,WUHU216HW,2013-02-07 09:35:00,
2013-02-07 04:40:00,29.7,-29.7,29.48,North,0,0.0,0.0,6,0.00,,,0.00,WUHU216HW,2013-02-07 09:40:00,
2013-02-07 04:45:00,30.2,-19.8,29.48,North,0,0.0,0.0,1,0.00,,,0.00,WUHU216HW,2013-02-07 09:45:00,
2013-02-07 04:50:00,30.6,-19.5,29.48,North,0,0.0,0.0,1,0.00,,,0.00,WUHU216HW,2013-02-07 09:50:00,
2013-02-07 04:55:00,30.8,-19.3,29.48,North,0,0.0,0.0,1,0.00,,,0.00,WUHU216HW,2013-02-07 09:55:00,
2013-02-07 05:00:00,30.8,-19.3,29.48,North,0,0.0,0.0,2,0.00,,,0.00,WUHU216HW,2013-02-07 10:00:00,
2013-02-07 05:05:00,31.0,-19.3,29.48,North,0,0.0,0.0,1,0.00,,,0.00,WUHU216HW,2013-02-07 10:05:00,
2013-02-07 05:10:00,31.1,-19.1,29.47,North,0,0.0,0.0,1,0.00,,,0.00,WUHU216HW,2013-02-07 10:10:00,
2013-02-07 05:15:00,31.3,-18.9,29.47,North,0,0.0,0.0,1,0.00,,,0.00,WUHU216HW,2013-02-07 10:15:00,
2013-02-07 05:20:00,31.5,-18.8,29.47,North,0,0.0,0.0,1,0.00,,,0.00,WUHU216HW,2013-02-07 10:20:00,
2013-02-07 05:25:00,31.5,-18.8,29.47,North,0,0.0,0.0,4,0.00,,,0.00,WUHU216HW,2013-02-07 10:25:00,
2013-02-07 05:30:00,31.7,-18.6,29.47,North,0,0.0,0.0,4,0.00,,,0.00,WUHU216HW,2013-02-07 10:30:00,
2013-02-07 05:35:00,32.0,-18.4,29.46,North,0,0.0,0.0,6,0.00,,,0.00,WUHU216HW,2013-02-07 10:35:00,
2013-02-07 05:41:00,32.0,-18.4,29.46,North,0,0.0,0.0,9,0.00,,,0.00,WUHU216HW,2013-02-07 10:41:00,
2013-02-07 05:46:00,32.2,-16.8,29.46,North,0,0.0,0.0,11,0.00,,,0.00,WUHU216HW,2013-02-07 10:46:00,
2013-02-07 05:51:00,32.2,-15.5,29.46,North,0,0.0,0.0,12,0.00,,,0.00,WUHU216HW,2013-02-07 10:51:00,
2013-02-07 05:56:00,32.4,-11.2,29.46,North,0,0.0,0.0,15,0.00,,,0.00,WUHU216HW,2013-02-07 10:56:00,
2013-02-07 06:01:00,32.4,-9.8,29.45,North,0,0.0,0.0,16,0.00,,,0.00,WUHU216HW,2013-02-07 11:01:00,
2013-02-07 06:06:00,32.6,-6.8,29.46,North,0,0.0,0.0,18,0.00,,,0.00,WUHU216HW,2013-02-07 11:06:00,
2013-02-07 06:11:00,32.6,-4.0,29.46,North,0,0.0,0.0,20,0.00,,,0.00,WUHU216HW,2013-02-07 11:11:00,
2013-02-07 06:16:00,32.6,-3.2,29.45,North,0,0.0,0.0,21,0.00,,,0.00,WUHU216HW,2013-02-07 11:16:00,
2013-02-07 06:21:00,32.4,-3.3,29.46,North,0,0.0,0.0,21,0.00,,,0.00,WUHU216HW,2013-02-07 11:21:00,
2013-02-07 06:26:00,32.4,-4.2,29.46,North,0,0.0,0.0,20,0.00,,,0.00,WUHU216HW,2013-02-07 11:26:00,
2013-02-07 06:31:00,32.4,-3.3,29.46,North,0,0.0,0.0,21,0.00,,,0.00,WUHU216HW,2013-02-07 11:31:00,
2013-02-07 06:36:00,32.2,-4.3,29.46,North,0,0.0,0.0,20,0.00,,,0.00,WUHU216HW,2013-02-07 11:36:00,
2013-02-07 06:41:00,32.2,-2.6,29.46,North,0,0.0,0.0,22,0.00,,,0.00,WUHU216HW,2013-02-07 11:41:00,
2013-02-07 06:46:00,32.2,-2.6,29.46,North,0,0.0,0.0,22,0.00,,,0.00,WUHU216HW,2013-02-07 11:46:00,
2013-02-07 06:51:00,32.2,-3.5,29.46,North,0,0.0,0.0,21,0.00,,,0.00,WUHU216HW,2013-02-07 11:51:00,
2013-02-07 06:56:00,32.2,-8.5,29.46,North,0,0.0,0.0,17,0.00,,,0.00,WUHU216HW,2013-02-07 11:56:00,
2013-02-07 07:01:00,32.2,-7.1,29.45,North,0,0.0,0.0,18,0.00,,,0.00,WUHU216HW,2013-02-07 12:01:00,
2013-02-07 07:06:00,32.2,-2.6,29.46,North,0,0.0,0.0,22,0.00,,,0.00,WUHU216HW,2013-02-07 12:06:00,
2013-02-07 07:12:00,32.0,-3.6,29.46,North,0,0.0,0.0,21,0.00,,,0.00,WUHU216HW,2013-02-07 12:12:00,
2013-02-07 07:17:00,32.2,-8.5,29.46,North,0,0.0,0.0,17,0.00,,,0.00,WUHU216HW,2013-02-07 12:17:00,
2013-02-07 07:22:00,31.9,-3.8,29.46,North,0,0.0,0.0,21,0.00,,,0.00,WUHU216HW,2013-02-07 12:22:00,
2013-02-07 07:27:00,31.7,-3.0,29.46,North,0,0.0,0.0,22,0.00,,,0.00,WUHU216HW,2013-02-07 12:27:00,
2013-02-07 07:32:00,31.5,-4.1,29.46,North,0,0.0,0.0,21,0.00,,,0.00,WUHU216HW,2013-02-07 12:32:00,
2013-02-07 07:36:00,31.3,-6.6,29.45,North,0,0.0,0.0,19,0.00,,,0.00,WUHU216HW,2013-02-07 12:36:00,
2013-02-07 07:37:00,31.3,-5.1,29.45,North,0,0.0,0.0,20,0.00,,,0.00,WUHU216HW,2013-02-07 12:37:00,
2013-02-07 07:42:00,31.3,-6.6,29.45,North,0,0.0,0.0,19,0.00,,,0.00,WUHU216HW,2013-02-07 12:42:00,
2013-02-07 08:00:00,31.3,-18.9,29.44,North,0,0.0,0.0,6,0.00,,,0.00,WUHU216HW,2013-02-07 13:00:00,
2013-02-07 08:01:00,31.3,-18.9,29.44,North,0,0.0,0.0,6,0.00,,,0.00,WUHU216HW,2013-02-07 13:01:00,
2013-02-07 08:06:00,31.3,-18.9,29.44,North,0,0.0,0.0,6,0.00,,,0.00,WUHU216HW,2013-02-07 13:06:00,
2013-02-07 09:00:00,33.5,-2.4,29.42,North,0,0.0,0.0,21,0.00,,,0.00,WUHU216HW,2013-02-07 14:00:00,
2013-02-07 09:01:00,33.5,-2.4,29.42,North,0,0.0,0.0,21,0.00,,,0.00,WUHU216HW,2013-02-07 14:01:00,
2013-02-07 09:06:00,33.5,-2.4,29.42,North,0,0.0,0.0,21,0.00,,,0.00,WUHU216HW,2013-02-07 14:06:00,
2013-02-07 10:00:00,39.8,26.6,29.43,North,0,0.0,0.0,59,0.00,,,0.00,WUHU216HW,2013-02-07 15:00:00,
2013-02-07 10:01:00,39.8,26.6,29.43,North,0,0.0,0.0,59,0.00,,,0.00,WUHU216HW,2013-02-07 15:01:00,
2013-02-07 10:06:00,39.8,26.6,29.43,North,0,0.0,0.0,59,0.00,,,0.00,WUHU216HW,2013-02-07 15:06:00,
2013-02-07 11:00:00,47.0,33.8,29.41,North,0,0.0,0.0,60,0.00,,,0.00,WUHU216HW,2013-02-07 16:00:00,
2013-02-07 11:01:00,47.0,33.8,29.41,North,0,0.0,0.0,60,0.00,,,0.00,WUHU216HW,2013-02-07 16:01:00,
2013-02-07 11:06:00,47.0,33.8,29.41,North,0,0.0,0.0,60,0.00,,,0.00,WUHU216HW,2013-02-07 16:06:00,
2013-02-07 12:00:00,52.2,36.0,29.39,North,0,0.0,0.0,54,0.00,,,0.00,WUHU216HW,2013-02-07 17:00:00,
2013-02-07 12:01:00,52.2,36.0,29.39,North,0,0.0,0.0,54,0.00,,,0.00,WUHU216HW,2013-02-07 17:01:00,
2013-02-07 12:06:00,52.2,36.0,29.39,North,0,0.0,0.0,54,0.00,,,0.00,WUHU216HW,2013-02-07 17:06:00,
2013-02-07 13:00:00,55.3,37.9,29.35,North,0,0.0,0.0,52,0.00,,,0.00,WUHU216HW,2013-02-07 18:00:00,
2013-02-07 13:01:00,55.3,37.9,29.35,North,0,0.0,0.0,52,0.00,,,0.00,WUHU216HW,2013-02-07 18:01:00,
2013-02-07 13:06:00,55.3,37.9,29.35,North,0,0.0,0.0,52,0.00,,,0.00,WUHU216HW,2013-02-07 18:06:00,
2013-02-07 14:00:00,57.8,37.6,29.31,North,0,0.0,0.0,47,0.00,,,0.00,WUHU216HW,2013-02-07 19:00:00,
2013-02-07 14:01:00,57.8,37.6,29.31,North,0,0.0,0.0,47,0.00,,,0.00,WUHU216HW,2013-02-07 19:01:00,
2013-02-07 14:06:00,57.8,37.6,29.31,North,0,0.0,0.0,47,0.00,,,0.00,WUHU216HW,2013-02-07 19:06:00,
2013-02-07 15:00:00,60.1,39.2,29.29,North,0,0.0,0.0,46,0.00,,,0.00,WUHU216HW,2013-02-07 20:00:00,
2013-02-07 15:01:00,60.1,39.2,29.29,North,0,0.0,0.0,46,0.00,,,0.00,WUHU216HW,2013-02-07 20:01:00,
2013-02-07 15:06:00,60.1,39.2,29.29,North,0,0.0,0.0,46,0.00,,,0.00,WUHU216HW,2013-02-07 20:06:00,
2013-02-07 16:00:00,56.9,38.0,29.27,North,0,0.0,0.0,49,0.00,,,0.00,WUHU216HW,2013-02-07 21:00:00,
2013-02-07 16:01:00,56.9,38.0,29.27,North,0,0.0,0.0,49,0.00,,,0.00,WUHU216HW,2013-02-07 21:01:00,
2013-02-07 16:06:00,56.9,38.0,29.27,North,0,0.0,0.0,49,0.00,,,0.00,WUHU216HW,2013-02-07 21:06:00,
2013-02-07 17:00:00,52.9,37.6,29.24,North,0,0.0,0.0,56,0.00,,,0.00,WUHU216HW,2013-02-07 22:00:00,
2013-02-07 17:01:00,52.9,37.6,29.24,North,0,0.0,0.0,56,0.00,,,0.00,WUHU216HW,2013-02-07 22:01:00,
2013-02-07 17:06:00,52.9,37.6,29.24,North,0,0.0,0.0,56,0.00,,,0.00,WUHU216HW,2013-02-07 22:06:00,
2013-02-07 18:00:00,49.3,36.8,29.21,North,0,0.0,0.0,62,0.00,,,0.00,WUHU216HW,2013-02-07 23:00:00,
2013-02-07 18:01:00,49.3,36.8,29.21,North,0,0.0,0.0,62,0.00,,,0.00,WUHU216HW,2013-02-07 23:01:00,
2013-02-07 18:06:00,49.3,36.8,29.21,North,0,0.0,0.0,62,0.00,,,0.00,WUHU216HW,2013-02-07 23:06:00,
2013-02-07 19:01:00,46.3,32.2,29.20,North,0,0.0,0.0,58,0.00,,,0.00,WUHU216HW,2013-02-08 00:01:00,
2013-02-07 19:06:00,46.4,32.0,29.20,North,0,0.0,0.0,57,0.00,,,0.00,WUHU216HW,2013-02-08 00:06:00,
2013-02-07 19:11:00,46.6,32.1,29.20,North,0,0.0,0.0,57,0.00,,,0.00,WUHU216HW,2013-02-08 00:11:00,
2013-02-07 19:16:00,47.2,33.6,29.20,North,0,0.0,0.0,59,0.00,,,0.00,WUHU216HW,2013-02-08 00:16:00,
2013-02-07 19:21:00,47.3,33.8,29.20,North,0,0.0,0.0,59,0.00,,,0.00,WUHU216HW,2013-02-08 00:21:00,
2013-02-07 19:26:00,47.3,34.2,29.20,North,0,0.0,0.0,60,0.00,,,0.00,WUHU216HW,2013-02-08 00:26:00,
2013-02-07 19:31:00,47.3,34.2,29.19,North,0,0.0,0.0,60,0.00,,,0.00,WUHU216HW,2013-02-08 00:31:00,
2013-02-07 19:36:00,47.3,34.2,29.19,North,0,0.0,0.0,60,0.00,,,0.00,WUHU216HW,2013-02-08 00:36:00,
2013-02-07 19:41:00,47.5,34.4,29.19,North,0,0.0,0.0,60,0.00,,,0.00,WUHU216HW,2013-02-08 00:41:00,
2013-02-07 19:46:00,47.3,34.2,29.19,North,0,0.0,0.0,60,0.00,,,0.00,WUHU216HW,2013-02-08 00:46:00,
2013-02-07 20:00:00,47.3,34.2,29.19,North,0,0.0,0.0,60,0.00,,,0.00,WUHU216HW,2013-02-08 01:00:00,
2013-02-07 20:01:00,47.3,34.2,29.19,North,0,0.0,0.0,60,0.00,,,0.00,WUHU216HW,2013-02-08 01:01:00,
2013-02-07 20:06:00,47.3,34.2,29.19,North,0,0.0,0.0,60,0.00,,,0.00,WUHU216HW,2013-02-08 01:06:00,
2013-02-07 21:00:00,48.1,35.3,29.16,North,0,0.0,0.0,61,0.00,,,0.00,WUHU216HW,2013-02-08 02:00:00,
2013-02-07 21:01:00,48.1,35.3,29.16,North,0,0.0,0.0,61,0.00,,,0.00,WUHU216HW,2013-02-08 02:01:00,
2013-02-07 21:06:00,48.1,35.3,29.16,North,0,0.0,0.0,61,0.00,,,0.00,WUHU216HW,2013-02-08 02:06:00,
2013-02-07 22:01:00,46.1,-7.5,29.18,North,0,0.0,0.0,1,0.02,,,0.02,WUHU216HW,2013-02-08 03:01:00,
2013-02-07 22:06:00,45.7,-7.7,29.18,North,0,0.0,0.0,6,0.03,,,0.03,WUHU216HW,2013-02-08 03:06:00,
2013-02-07 22:11:00,45.7,-7.7,29.18,North,0,0.0,0.0,7,0.03,,,0.03,WUHU216HW,2013-02-08 03:11:00,
2013-02-07 22:16:00,45.7,-7.7,29.18,North,0,0.0,0.0,1,0.03,,,0.03,WUHU216HW,2013-02-08 03:16:00,
2013-02-07 22:21:00,45.7,-7.7,29.18,North,0,0.0,0.0,1,0.04,,,0.04,WUHU216HW,2013-02-08 03:21:00,
2013-02-07 22:26:00,45.7,-7.7,29.17,North,0,0.0,0.0,1,0.05,,,0.05,WUHU216HW,2013-02-08 03:26:00,
2013-02-07 22:31:00,45.7,-7.7,29.17,North,0,0.0,0.0,1,0.04,,,0.05,WUHU216HW,2013-02-08 03:31:00,
2013-02-07 22:36:00,45.4,-8.1,29.17,North,0,0.0,0.0,1,0.05,,,0.06,WUHU216HW,2013-02-08 03:36:00,
2013-02-07 22:41:00,45.4,-8.1,29.17,North,0,0.0,0.0,1,0.06,,,0.06,WUHU216HW,2013-02-08 03:41:00,
2013-02-07 22:46:00,45.4,-8.1,29.18,North,0,0.0,0.0,1,0.05,,,0.07,WUHU216HW,2013-02-08 03:46:00,
2013-02-07 22:51:00,45.2,-8.2,29.16,North,0,0.0,0.0,1,0.06,,,0.08,WUHU216HW,2013-02-08 03:51:00,
2013-02-07 22:56:00,45.2,-8.2,29.16,North,0,0.0,0.0,1,0.07,,,0.09,WUHU216HW,2013-02-08 03:56:00,
2013-02-07 23:01:00,45.0,-8.4,29.16,North,0,0.0,0.0,1,0.07,,,0.09,WUHU216HW,2013-02-08 04:01:00,
2013-02-07 23:06:00,45.0,-8.4,29.16,North,0,0.0,0.0,1,0.07,,,0.10,WUHU216HW,2013-02-08 04:06:00,
2013-02-07 23:11:00,44.8,-8.4,29.16,North,0,0.0,0.0,1,0.08,,,0.10,WUHU216HW,2013-02-08 04:11:00,
2013-02-07 23:16:00,44.6,-8.6,29.16,North,0,0.0,0.0,1,0.08,,,0.11,WUHU216HW,2013-02-08 04:16:00,
2013-02-07 23:21:00,44.5,-8.8,29.16,North,0,0.0,0.0,1,0.07,,,0.12,WUHU216HW,2013-02-08 04:21:00,
2013-02-07 23:26:00,44.3,-8.9,29.16,North,0,0.0,0.0,1,0.07,,,0.12,WUHU216HW,2013-02-08 04:26:00,
2013-02-07 23:32:00,44.1,-9.1,29.17,North,0,0.0,0.0,1,0.08,,,0.13,WUHU216HW,2013-02-08 04:32:00,
2013-02-07 23:37:00,43.9,-9.2,29.16,North,0,0.0,0.0,1,0.07,,,0.13,WUHU216HW,2013-02-08 04:37:00,
2013-02-07 23:42:00,43.7,-9.4,29.16,North,0,0.0,0.0,1,0.07,,,0.14,WUHU216HW,2013-02-08 04:42:00,
2013-02-07 23:47:00,43.6,-9.5,29.17,North,0,0.0,0.0,1,0.07,,,0.15,WUHU216HW,2013-02-08 04:47:00,
2013-02-07 23:52:00,43.2,-9.8,29.17,North,0,0.0,0.0,1,0.06,,,0.15,WUHU216HW,2013-02-08 04:52:00,
2013-02-07 23:57:00,42.8,-10.1,29.17,North,0,0.0,0.0,1,0.06,,,0.15,WUHU216HW,2013-02-08 04:57:00,